createdAt,value
2018-04-13T00:02:10.351Z,1.50
2018-04-13T00:04:38.678Z,1.70
2018-04-13T00:07:06.202Z,1.00
2018-04-13T00:09:33.736Z,1.42
2018-04-13T00:12:01.295Z,1.40
2018-04-13T00:14:28.823Z,1.27
2018-04-13T00:16:56.347Z,3.08
2018-04-13T00:19:23.892Z,1.62
2018-04-13T00:21:52.183Z,3.22
2018-04-13T00:24:19.710Z,1.80
2018-04-13T00:26:47.274Z,1.60
2018-04-13T00:29:15.580Z,1.73
2018-04-13T00:31:43.103Z,1.52
2018-04-13T00:34:10.643Z,1.30
2018-04-13T00:36:38.164Z,1.25
2018-04-13T00:39:06.645Z,1.37
2018-04-13T00:41:34.185Z,1.05
2018-04-13T00:44:02.486Z,1.50
2018-04-13T00:46:30.014Z,1.40
2018-04-13T00:48:58.320Z,1.48
2018-04-13T00:51:25.839Z,1.42
2018-04-13T00:53:53.366Z,1.60
2018-04-13T00:56:20.916Z,2.65
2018-04-13T00:58:49.213Z,1.20
2018-04-13T01:01:16.733Z,1.95
2018-04-13T01:03:44.278Z,1.92
2018-04-13T01:06:11.818Z,1.25
2018-04-13T01:08:40.144Z,1.75
2018-04-13T01:11:07.672Z,2.85
2018-04-13T01:13:35.198Z,1.17
2018-04-13T01:16:02.735Z,1.65
2018-04-13T01:18:30.287Z,1.83
2018-04-13T01:20:57.800Z,1.35
2018-04-13T01:23:26.087Z,1.25
2018-04-13T01:25:53.620Z,2.08
2018-04-13T01:28:21.145Z,1.08
2018-04-13T01:30:48.661Z,2.35
2018-04-13T01:33:16.242Z,1.70
2018-04-13T01:35:43.768Z,1.58
2018-04-13T01:38:12.054Z,1.42
2018-04-13T01:40:39.611Z,2.05
2018-04-13T01:43:07.911Z,2.40
2018-04-13T01:45:35.446Z,1.35
2018-04-13T01:48:03.769Z,2.20
2018-04-13T01:50:31.289Z,2.00
2018-04-13T01:52:58.808Z,1.35
2018-04-13T01:55:26.348Z,1.80
2018-04-13T01:57:53.868Z,1.60
2018-04-13T02:00:21.399Z,2.12
2018-04-13T02:02:49.702Z,1.85
2018-04-13T02:05:17.226Z,1.20
2018-04-13T02:07:44.754Z,1.25
2018-04-13T02:10:12.298Z,1.37
2018-04-13T02:12:39.821Z,1.17
2018-04-13T02:15:08.104Z,1.25
2018-04-13T02:17:36.412Z,1.08
2018-04-13T02:20:03.907Z,1.92
2018-04-13T02:22:31.421Z,1.67
2018-04-13T02:24:58.971Z,2.30
2018-04-13T02:27:26.500Z,1.80
2018-04-13T02:29:54.769Z,1.05
2018-04-13T02:32:22.322Z,1.20
2018-04-13T02:34:49.853Z,1.20
2018-04-13T02:37:17.365Z,1.70
2018-04-13T02:39:45.667Z,2.15
2018-04-13T02:42:13.194Z,1.35
2018-04-13T02:44:41.486Z,1.33
2018-04-13T02:47:09.051Z,2.05
2018-04-13T02:49:36.585Z,1.87
2018-04-13T02:52:04.869Z,1.75
2018-04-13T02:54:33.163Z,3.92
2018-04-13T02:57:00.680Z,3.60
2018-04-13T02:59:28.195Z,2.78
2018-04-13T03:01:55.736Z,2.55
2018-04-13T03:04:23.248Z,2.33
2018-04-13T03:06:50.768Z,2.70
2018-04-13T03:09:18.330Z,3.45
2018-04-13T03:11:45.837Z,1.87
2018-04-13T03:14:14.115Z,1.98
2018-04-13T03:16:41.652Z,2.05
2018-04-13T03:19:09.179Z,1.87
2018-04-13T03:21:36.704Z,1.02
2018-04-13T03:24:05.011Z,1.52
2018-04-13T03:26:32.525Z,1.30
2018-04-13T03:29:00.046Z,1.70
2018-04-13T03:31:27.597Z,1.83
2018-04-13T03:33:55.113Z,3.12
2018-04-13T03:36:23.421Z,2.12
2018-04-13T03:38:50.964Z,1.77
2018-04-13T03:41:19.248Z,1.48
2018-04-13T03:43:46.760Z,1.33
2018-04-13T03:46:14.297Z,1.30
2018-04-13T03:48:41.809Z,1.80
2018-04-13T03:51:10.092Z,1.55
2018-04-13T03:53:38.400Z,1.15
2018-04-13T03:56:05.926Z,1.30
2018-04-13T03:58:34.220Z,1.55
2018-04-13T04:01:01.771Z,1.95
2018-04-13T04:03:29.295Z,2.05
2018-04-13T04:05:56.808Z,1.50
2018-04-13T04:08:24.344Z,1.20
2018-04-13T04:10:51.855Z,1.42
2018-04-13T04:13:20.887Z,1.33
2018-04-13T04:15:49.197Z,1.35
2018-04-13T04:18:16.696Z,1.50
2018-04-13T04:20:56.124Z,2.97
2018-04-13T04:23:35.690Z,1.58
2018-04-13T04:26:21.731Z,1.60
2018-04-13T04:28:49.248Z,1.70
2018-04-13T04:31:17.531Z,1.30
2018-04-13T04:33:45.072Z,1.08
2018-04-13T04:36:12.608Z,3.28
2018-04-13T04:38:40.155Z,1.42
2018-04-13T04:41:07.714Z,1.75
2018-04-13T04:43:35.227Z,1.05
2018-04-13T04:46:03.495Z,1.52
2018-04-13T04:48:31.814Z,1.92
2018-04-13T04:50:59.341Z,1.67
2018-04-13T04:53:26.864Z,1.58
2018-04-13T04:55:54.395Z,1.15
2018-04-13T04:58:21.915Z,1.85
2018-04-13T05:00:50.193Z,1.87
2018-04-13T05:03:18.502Z,1.80
2018-04-13T05:05:46.008Z,1.50
2018-04-13T05:08:13.532Z,1.90
2018-04-13T05:10:41.093Z,2.50
2018-04-13T05:13:08.615Z,1.90
2018-04-13T05:15:36.135Z,2.83
2018-04-13T05:18:03.692Z,1.10
2018-04-13T05:20:31.217Z,1.75
2018-04-13T05:22:58.756Z,1.50
2018-04-13T05:25:26.287Z,1.40
2018-04-13T05:27:54.572Z,1.52
2018-04-13T05:30:22.865Z,1.05
2018-04-13T05:32:50.459Z,1.27
2018-04-13T05:35:18.051Z,1.52
2018-04-13T05:37:45.537Z,1.70
2018-04-13T05:40:13.089Z,1.42
2018-04-13T05:42:41.374Z,1.60
2018-04-13T05:45:08.898Z,1.33
2018-04-13T05:47:36.457Z,1.35
2018-04-13T05:50:03.983Z,1.45
2018-04-13T05:52:31.514Z,0.90
2018-04-13T05:54:59.083Z,2.08
2018-04-13T05:57:26.606Z,1.30
2018-04-13T05:59:54.911Z,1.65
2018-04-13T06:02:22.461Z,0.97
2018-04-13T06:04:50.019Z,1.13
2018-04-13T06:07:17.559Z,1.50
2018-04-13T06:09:45.878Z,0.97
2018-04-13T06:12:13.414Z,1.10
2018-04-13T06:14:40.945Z,1.07
2018-04-13T06:17:08.488Z,1.03
2018-04-13T06:19:36.022Z,1.10
2018-04-13T06:22:03.542Z,1.00
2018-04-13T06:24:31.857Z,0.60
2018-04-13T06:26:59.374Z,0.90
2018-04-13T06:29:27.662Z,1.03
2018-04-13T06:31:55.232Z,1.63
2018-04-13T06:34:22.757Z,1.00
2018-04-13T06:36:55.043Z,1.00
2018-04-13T06:39:18.612Z,0.83
2018-04-13T06:41:46.904Z,0.60
2018-04-13T06:44:14.434Z,1.00
2018-04-13T06:46:42.757Z,0.67
2018-04-13T06:49:10.271Z,0.90
2018-04-13T06:51:38.554Z,1.37
2018-04-13T06:54:06.121Z,0.80
2018-04-13T06:56:33.631Z,0.90
2018-04-13T06:59:01.154Z,0.87
2018-04-13T07:01:29.090Z,0.70
2018-04-13T07:03:56.658Z,1.00
2018-04-13T07:06:24.950Z,0.70
2018-04-13T07:08:52.509Z,0.70
2018-04-13T07:11:20.238Z,1.00
2018-04-13T07:13:48.539Z,0.93
2018-04-13T07:16:16.878Z,1.43
2018-04-13T07:18:44.397Z,1.47
2018-04-13T07:21:11.916Z,0.60
2018-04-13T07:23:39.461Z,0.77
2018-04-13T07:26:06.992Z,0.80
2018-04-13T07:28:34.607Z,0.80
2018-04-13T07:31:02.928Z,0.70
2018-04-13T07:33:30.452Z,1.00
2018-04-13T07:35:57.971Z,0.87
2018-04-13T07:38:25.790Z,1.03
2018-04-13T07:40:53.846Z,1.20
2018-04-13T07:43:22.133Z,0.90
2018-04-13T07:45:49.895Z,1.20
2018-04-13T07:48:17.795Z,1.03
2018-04-13T07:50:45.518Z,0.70
2018-04-13T07:53:13.840Z,0.70
2018-04-13T07:55:42.111Z,0.97
2018-04-13T07:58:09.624Z,1.00
2018-04-13T08:00:37.954Z,0.60
2018-04-13T08:03:05.595Z,0.70
2018-04-13T08:05:33.145Z,0.60
2018-04-13T08:08:00.715Z,0.50
2018-04-13T08:10:28.261Z,1.00
2018-04-13T08:12:55.799Z,0.60
2018-04-13T08:15:24.124Z,0.60
2018-04-13T08:17:51.643Z,1.33
2018-04-13T08:20:19.938Z,0.70
2018-04-13T08:22:47.470Z,0.57
2018-04-13T08:25:15.762Z,1.10
2018-04-13T08:27:43.283Z,0.83
2018-04-13T08:30:10.850Z,0.70
2018-04-13T08:32:38.391Z,0.80
2018-04-13T08:35:05.935Z,0.60
2018-04-13T08:37:33.477Z,0.77
2018-04-13T08:40:00.988Z,0.70
2018-04-13T08:42:28.513Z,0.50
2018-04-13T08:44:56.833Z,0.50
2018-04-13T08:47:25.102Z,0.60
2018-04-13T08:49:52.630Z,0.50
2018-04-13T08:52:20.188Z,0.60
2018-04-13T08:54:47.717Z,0.70
2018-04-13T08:57:15.242Z,0.70
2018-04-13T08:59:43.563Z,0.60
2018-04-13T09:02:11.071Z,0.97
2018-04-13T09:04:38.621Z,0.67
2018-04-13T09:07:06.164Z,0.70
2018-04-13T09:09:33.698Z,0.63
2018-04-13T09:12:01.255Z,0.60
2018-04-13T09:14:39.942Z,0.50
2018-04-13T09:17:07.430Z,0.40
2018-04-13T09:19:34.949Z,0.50
2018-04-13T09:22:03.249Z,0.60
2018-04-13T09:24:30.777Z,0.90
2018-04-13T09:26:58.327Z,0.60
2018-04-13T09:29:25.863Z,0.60
2018-04-13T09:31:53.374Z,0.60
2018-04-13T09:34:21.672Z,0.83
2018-04-13T09:36:49.221Z,0.80
2018-04-13T09:39:16.745Z,0.40
2018-04-13T09:41:44.282Z,0.50
2018-04-13T09:44:11.846Z,0.93
2018-04-13T09:46:39.383Z,0.67
2018-04-13T09:49:06.891Z,0.50
2018-04-13T09:51:35.201Z,0.40
2018-04-13T09:54:02.734Z,0.50
2018-04-13T09:56:31.028Z,1.27
2018-04-13T09:58:58.568Z,0.90
2018-04-13T10:01:26.857Z,0.50
2018-04-13T10:07:05.800Z,0.63
2018-04-13T10:09:34.100Z,0.50
2018-04-13T10:12:01.635Z,0.60
2018-04-13T10:14:29.921Z,0.60
2018-04-13T10:16:57.471Z,0.90
2018-04-13T10:19:25.756Z,1.10
2018-04-13T10:21:54.026Z,0.60
2018-04-13T10:24:22.332Z,0.50
2018-04-13T10:26:49.875Z,0.50
2018-04-13T10:29:17.401Z,0.43
2018-04-13T10:31:45.710Z,1.00
2018-04-13T10:34:13.232Z,0.50
2018-04-13T10:36:41.523Z,0.50
2018-04-13T10:39:09.869Z,0.50
2018-04-13T10:41:37.390Z,0.80
2018-04-13T10:44:04.950Z,18.73
2018-04-13T10:46:32.531Z,7.20
2018-04-13T10:49:00.054Z,2.77
2018-04-13T10:51:27.560Z,0.70
2018-04-13T10:53:55.102Z,0.50
2018-04-13T10:56:22.629Z,0.50
2018-04-13T10:58:50.912Z,0.60
2018-04-13T11:01:18.448Z,0.40
2018-04-13T11:03:46.783Z,0.40
2018-04-13T11:06:14.672Z,0.50
2018-04-13T11:08:42.230Z,0.50
2018-04-13T11:11:09.748Z,0.60
2018-04-13T11:13:37.275Z,0.50
2018-04-13T11:16:05.584Z,0.50
2018-04-13T11:18:33.108Z,0.50
2018-04-13T11:21:01.415Z,1.17
2018-04-13T11:23:28.978Z,0.50
2018-04-13T11:25:56.492Z,0.53
2018-04-13T11:28:24.782Z,0.67
2018-04-13T11:30:53.109Z,0.40
2018-04-13T11:33:20.633Z,0.40
2018-04-13T11:35:48.416Z,0.60
2018-04-13T11:38:15.977Z,0.50
2018-04-13T11:40:43.528Z,0.40
2018-04-13T11:43:11.044Z,0.50
2018-04-13T11:45:38.593Z,0.60
2018-04-13T11:48:06.127Z,0.67
2018-04-13T11:50:33.659Z,0.53
2018-04-13T11:53:01.200Z,0.57
2018-04-13T11:55:29.485Z,0.60
2018-04-13T11:57:57.007Z,0.50
2018-04-13T12:00:24.551Z,0.40
2018-04-13T12:02:52.086Z,0.50
2018-04-13T12:05:19.604Z,0.67
2018-04-13T12:07:47.913Z,0.50
2018-04-13T12:10:15.423Z,0.80
2018-04-13T12:12:42.952Z,3.23
2018-04-13T12:15:10.494Z,0.60
2018-04-13T12:17:38.003Z,0.70
2018-04-13T12:20:06.377Z,1.20
2018-04-13T12:22:34.878Z,0.60
2018-04-13T12:25:03.173Z,0.90
2018-04-13T12:27:30.696Z,0.77
2018-04-13T12:29:58.255Z,1.00
2018-04-13T12:32:25.784Z,1.10
2018-04-13T12:34:53.317Z,0.83
2018-04-13T12:37:20.873Z,0.83
2018-04-13T12:39:48.392Z,0.97
2018-04-13T12:42:15.913Z,0.80
2018-04-13T12:44:43.479Z,0.70
2018-04-13T12:47:10.997Z,0.80
2018-04-13T12:49:38.534Z,1.10
2018-04-13T12:52:06.857Z,1.03
2018-04-13T14:29:12.488Z,1.67
2018-04-13T14:31:40.003Z,1.60
2018-04-13T14:34:07.508Z,1.40
2018-04-13T14:36:35.046Z,1.10
2018-04-13T14:39:03.316Z,0.90
2018-04-13T14:41:31.627Z,1.30
2018-04-13T14:43:59.161Z,1.17
2018-04-13T14:46:26.673Z,1.10
2018-04-13T14:48:54.171Z,0.90
2018-04-13T14:51:22.456Z,0.83
2018-04-13T14:53:49.960Z,1.10
2018-04-13T14:56:17.473Z,0.80
2018-04-13T14:58:45.005Z,0.80
2018-04-13T15:01:12.512Z,0.90
2018-04-13T15:03:40.012Z,0.60
2018-04-13T15:06:07.551Z,1.10
2018-04-13T15:08:35.056Z,1.80
2018-04-13T15:11:03.341Z,2.40
2018-04-13T15:13:30.866Z,3.03
2018-04-13T15:15:58.369Z,3.33
2018-04-13T15:18:25.885Z,3.20
2018-04-13T15:20:53.420Z,3.00
2018-04-13T15:23:20.936Z,3.23
2018-04-13T15:25:48.451Z,5.17
2018-04-13T15:28:16.006Z,4.90
2018-04-13T15:30:43.501Z,5.67
2018-04-13T15:33:11.767Z,5.57
2018-04-13T15:35:40.076Z,4.40
2018-04-13T15:38:07.592Z,4.33
2018-04-13T15:40:35.113Z,4.20
2018-04-13T15:43:02.636Z,4.40
2018-04-13T15:45:30.930Z,6.27
2018-04-13T15:47:58.497Z,5.57
2018-04-13T15:50:26.034Z,4.97
2018-04-13T15:52:53.540Z,6.10
2018-04-13T15:55:21.057Z,5.80
2018-04-13T15:57:48.580Z,4.50
2018-04-13T16:00:16.075Z,6.47
2018-04-13T16:02:43.584Z,5.53
2018-04-13T16:05:11.116Z,5.80
2018-04-13T16:07:38.635Z,6.37
2018-04-13T16:10:06.918Z,5.67
2018-04-13T16:12:35.231Z,4.83
2018-04-13T16:15:02.805Z,4.60
2018-04-13T16:17:30.313Z,5.07
2018-04-13T16:19:58.605Z,5.00
2018-04-13T16:22:26.103Z,5.57
2018-04-13T16:24:53.614Z,7.20
2018-04-13T16:27:21.140Z,4.97
2018-04-13T16:29:48.646Z,4.10
2018-04-13T16:32:16.166Z,5.10
2018-04-13T16:34:44.466Z,4.93
2018-04-13T16:37:11.982Z,5.50
2018-04-13T16:39:39.491Z,5.43
2018-04-13T16:42:07.035Z,4.20
2018-04-13T16:44:34.551Z,4.43
2018-04-13T16:47:02.066Z,4.43
2018-04-13T16:49:29.594Z,4.00
2018-04-13T16:51:57.881Z,4.10
2018-04-13T16:54:26.151Z,3.10
2018-04-13T16:56:54.452Z,3.70
2018-04-13T16:59:21.969Z,3.70
2018-04-13T17:01:49.486Z,3.07
2018-04-13T17:04:17.007Z,3.70
2018-04-13T17:06:45.271Z,5.40
2018-04-13T17:09:13.556Z,3.57
2018-04-13T17:11:41.854Z,3.27
2018-04-13T17:14:09.398Z,2.33
2018-04-13T17:16:37.651Z,3.30
2018-04-13T17:19:05.194Z,3.17
2018-04-13T17:21:34.029Z,3.93
2018-04-13T17:24:02.465Z,3.20
2018-04-13T17:26:30.006Z,3.13
2018-04-13T17:28:57.503Z,3.20
2018-04-13T17:31:25.949Z,3.00
2018-04-13T17:33:54.240Z,2.67
2018-04-13T17:36:21.825Z,2.40
2018-04-13T17:38:50.225Z,2.97
2018-04-13T17:41:17.774Z,2.90
2018-04-13T17:43:46.054Z,2.77
2018-04-13T17:46:13.570Z,2.80
2018-04-13T17:48:41.106Z,3.40
2018-04-13T17:51:08.608Z,4.70
2018-04-13T17:53:36.122Z,3.30
2018-04-13T17:56:03.658Z,2.80
2018-04-13T17:58:31.175Z,3.00
2018-04-13T18:00:58.676Z,2.97
2018-04-13T18:03:26.209Z,2.43
2018-04-13T18:05:54.476Z,2.67
2018-04-13T18:08:21.972Z,3.13
2018-04-13T18:10:49.494Z,2.70
2018-04-13T18:13:17.030Z,2.83
2018-04-13T18:15:44.544Z,2.47
2018-04-13T18:18:12.072Z,3.27
2018-04-13T18:20:40.348Z,3.17
2018-04-13T18:23:08.792Z,3.78
2018-04-13T18:25:36.337Z,3.15
2018-04-13T18:28:03.859Z,3.47
2018-04-13T18:30:32.137Z,3.65
2018-04-13T18:32:59.678Z,4.32
2018-04-13T18:35:27.957Z,4.43
2018-04-13T18:37:55.474Z,7.80
2018-04-13T18:40:23.009Z,6.62
2018-04-13T18:42:50.525Z,4.47
2018-04-13T18:45:18.023Z,4.95
2018-04-13T18:47:45.558Z,5.37
2018-04-13T18:50:13.833Z,4.95
2018-04-13T18:52:42.109Z,4.35
2018-04-13T18:55:10.743Z,4.00
2018-04-13T18:57:38.253Z,4.95
2018-04-13T19:00:06.529Z,5.57
2018-04-13T19:02:34.817Z,4.20
2018-04-13T19:05:03.094Z,4.70
2018-04-13T19:07:31.359Z,4.05
2018-04-13T19:09:59.652Z,5.22
2018-04-13T19:12:27.166Z,5.03
2018-04-13T19:14:54.663Z,4.87
2018-04-13T19:17:22.944Z,4.65
2018-04-13T19:19:50.459Z,4.72
2018-04-13T19:22:17.955Z,4.40
2018-04-13T19:24:46.673Z,3.75
2018-04-13T19:27:14.651Z,4.65
2018-04-13T19:29:42.161Z,4.32
2018-04-13T19:32:10.444Z,4.40
2018-04-13T19:34:38.717Z,4.40
2018-04-13T19:37:06.992Z,5.62
2018-04-13T19:39:35.275Z,5.30
2018-04-13T19:42:03.544Z,5.25
2018-04-13T19:44:31.807Z,4.40
2018-04-13T19:46:59.357Z,4.72
2018-04-13T19:49:26.871Z,4.40
2018-04-13T19:51:54.367Z,4.28
2018-04-13T19:54:21.883Z,4.28
2018-04-13T19:56:49.389Z,4.20
2018-04-13T19:59:16.884Z,3.67
2018-04-13T20:01:44.400Z,3.87
2018-04-13T20:04:11.891Z,3.17
2018-04-13T20:06:40.147Z,3.95
2018-04-13T20:09:07.677Z,3.62
2018-04-13T20:11:35.243Z,3.47
2018-04-13T20:14:02.722Z,4.15
2018-04-13T20:16:30.263Z,4.20
2018-04-13T20:18:57.756Z,4.15
2018-04-13T20:21:26.012Z,5.50
2018-04-13T20:23:53.539Z,4.60
2018-04-13T20:26:21.049Z,4.93
2018-04-13T20:28:49.308Z,4.18
2018-04-13T20:31:16.830Z,4.95
2018-04-13T20:33:44.330Z,4.00
2018-04-13T20:36:11.819Z,4.95
2018-04-13T20:38:39.353Z,5.68
2018-04-13T20:41:07.661Z,4.50
2018-04-13T20:43:35.157Z,5.53
2018-04-13T20:46:02.697Z,4.65
2018-04-13T20:48:30.249Z,5.32
2018-04-13T20:50:57.758Z,4.60
2018-04-13T20:53:25.276Z,8.75
2018-04-13T20:55:52.771Z,6.80
2018-04-13T20:58:20.268Z,5.80
2018-04-13T21:00:47.783Z,5.87
2018-04-13T21:03:15.295Z,6.10
2018-04-13T21:05:42.792Z,6.10
2018-04-13T21:08:10.313Z,7.72
2018-04-13T21:10:37.822Z,8.27
2018-04-13T21:13:05.331Z,9.60
2018-04-13T21:15:32.856Z,10.35
2018-04-13T21:18:01.184Z,13.27
2018-04-13T21:20:28.688Z,12.65
2018-04-13T21:22:56.980Z,11.48
2018-04-13T21:25:24.678Z,8.90
2018-04-13T21:27:52.185Z,8.07
2018-04-13T21:30:20.462Z,8.10
2018-04-13T21:32:48.734Z,6.10
2018-04-13T21:35:17.005Z,6.25
2018-04-13T21:37:45.299Z,11.40
2018-04-13T21:40:13.567Z,10.18
2018-04-13T21:42:41.827Z,12.37
2018-04-13T21:45:09.361Z,9.10
2018-04-13T21:47:36.869Z,7.62
2018-04-13T21:50:05.141Z,6.87
2018-04-13T21:52:33.431Z,6.57
2018-04-13T21:55:00.936Z,7.28
2018-04-13T21:57:28.442Z,6.05
2018-04-13T21:59:55.973Z,7.22
2018-04-13T22:02:23.468Z,6.55
2018-04-13T22:04:50.979Z,6.57
2018-04-13T22:07:18.491Z,7.47
2018-04-13T22:09:45.991Z,7.97
2018-04-13T22:15:14.261Z,8.63
2018-04-13T22:17:41.783Z,9.13
2018-04-13T22:20:10.055Z,9.15
2018-04-13T22:22:38.328Z,8.40
2018-04-13T22:25:06.624Z,7.50
2018-04-13T22:27:34.129Z,8.88
2018-04-13T22:30:01.637Z,7.70
2018-04-13T22:32:29.169Z,7.12
2018-04-13T22:34:56.677Z,7.80
2018-04-13T22:37:24.188Z,9.32
2018-04-13T22:39:52.504Z,9.02
2018-04-13T22:42:20.004Z,10.82
2018-04-13T22:44:47.511Z,10.18
2018-04-13T22:47:15.794Z,7.68
2018-04-13T22:49:43.295Z,8.93
2018-04-13T22:52:10.793Z,8.18
2018-04-13T22:54:39.080Z,9.27
2018-04-13T22:57:06.576Z,8.43
2018-04-13T22:59:34.083Z,9.10
2018-04-13T23:02:02.364Z,7.78
2018-04-13T23:04:30.623Z,7.18
2018-04-13T23:06:58.883Z,8.23
2018-04-13T23:09:26.414Z,7.87
2018-04-13T23:11:53.910Z,8.43
2018-04-13T23:14:21.404Z,7.30
2018-04-13T23:16:48.924Z,8.02
2018-04-13T23:19:16.434Z,6.43
2018-04-13T23:21:43.928Z,6.40
2018-04-13T23:24:11.444Z,8.00
2018-04-13T23:26:38.961Z,7.70
2018-04-13T23:29:07.223Z,7.85
2018-04-13T23:31:34.744Z,7.65
2018-04-13T23:34:02.255Z,7.37
2018-04-13T23:36:30.520Z,7.82
2018-04-13T23:38:58.035Z,6.43
2018-04-13T23:41:25.527Z,6.35
2018-04-13T23:43:53.012Z,7.20
2018-04-13T23:46:21.298Z,6.50
2018-04-13T23:48:49.569Z,7.85
2018-04-13T23:51:17.827Z,7.78
2018-04-13T23:53:45.354Z,8.18
2018-04-13T23:56:12.873Z,9.52
2018-04-13T23:58:40.378Z,7.80
